sensor_id;sensor_type;location;lat;lon;timestamp;P1;durP1;ratioP1;P2;durP2;ratioP2
45848;SDS011;31567;54.600;9.842;2022-12-18T00:00:39;28.58;;;18.70;;
45848;SDS011;31567;54.600;9.842;2022-12-18T00:04:23;36.45;;;20.67;;
45848;SDS011;31567;54.600;9.842;2022-12-18T00:08:04;32.63;;;19.08;;
45848;SDS011;31567;54.600;9.842;2022-12-18T00:11:43;31.33;;;19.15;;
45848;SDS011;31567;54.600;9.842;2022-12-18T00:15:23;35.65;;;21.23;;
45848;SDS011;31567;54.600;9.842;2022-12-18T00:19:03;35.13;;;21.73;;
45848;SDS011;31567;54.600;9.842;2022-12-18T00:22:43;32.75;;;20.75;;
45848;SDS011;31567;54.600;9.842;2022-12-18T00:26:24;37.25;;;20.90;;
45848;SDS011;31567;54.600;9.842;2022-12-18T00:30:08;30.52;;;18.27;;
45848;SDS011;31567;54.600;9.842;2022-12-18T00:33:48;27.55;;;17.17;;
45848;SDS011;31567;54.600;9.842;2022-12-18T00:37:28;29.85;;;20.20;;
45848;SDS011;31567;54.600;9.842;2022-12-18T00:41:08;25.90;;;15.75;;
45848;SDS011;31567;54.600;9.842;2022-12-18T00:44:48;27.20;;;17.42;;
45848;SDS011;31567;54.600;9.842;2022-12-18T00:48:28;25.85;;;16.95;;
45848;SDS011;31567;54.600;9.842;2022-12-18T00:52:08;29.15;;;18.35;;
45848;SDS011;31567;54.600;9.842;2022-12-18T00:55:47;24.58;;;16.45;;
45848;SDS011;31567;54.600;9.842;2022-12-18T00:59:27;28.95;;;16.42;;
45848;SDS011;31567;54.600;9.842;2022-12-18T01:03:06;29.98;;;19.10;;
45848;SDS011;31567;54.600;9.842;2022-12-18T01:06:46;30.95;;;19.02;;
45848;SDS011;31567;54.600;9.842;2022-12-18T01:10:25;24.90;;;17.42;;
45848;SDS011;31567;54.600;9.842;2022-12-18T01:14:05;32.88;;;20.17;;
45848;SDS011;31567;54.600;9.842;2022-12-18T01:17:45;31.90;;;19.85;;
45848;SDS011;31567;54.600;9.842;2022-12-18T01:21:25;30.33;;;19.38;;
45848;SDS011;31567;54.600;9.842;2022-12-18T01:25:04;29.73;;;19.23;;
45848;SDS011;31567;54.600;9.842;2022-12-18T01:28:44;31.27;;;20.88;;
45848;SDS011;31567;54.600;9.842;2022-12-18T01:32:24;30.80;;;20.30;;
45848;SDS011;31567;54.600;9.842;2022-12-18T01:36:03;30.98;;;20.60;;
45848;SDS011;31567;54.600;9.842;2022-12-18T01:39:43;32.47;;;20.33;;
45848;SDS011;31567;54.600;9.842;2022-12-18T01:43:39;28.48;;;19.30;;
45848;SDS011;31567;54.600;9.842;2022-12-18T01:51:33;29.45;;;20.58;;
45848;SDS011;31567;54.600;9.842;2022-12-18T01:55:14;28.95;;;18.85;;
45848;SDS011;31567;54.600;9.842;2022-12-18T01:59:02;27.42;;;18.80;;
45848;SDS011;31567;54.600;9.842;2022-12-18T02:02:45;30.02;;;19.60;;
45848;SDS011;31567;54.600;9.842;2022-12-18T02:06:27;28.75;;;19.70;;
45848;SDS011;31567;54.600;9.842;2022-12-18T02:18:35;25.17;;;16.63;;
45848;SDS011;31567;54.600;9.842;2022-12-18T02:22:20;25.30;;;16.75;;
45848;SDS011;31567;54.600;9.842;2022-12-18T02:30:04;25.92;;;17.23;;
45848;SDS011;31567;54.600;9.842;2022-12-18T02:33:44;31.58;;;19.70;;
45848;SDS011;31567;54.600;9.842;2022-12-18T02:37:24;30.25;;;20.00;;
45848;SDS011;31567;54.600;9.842;2022-12-18T02:41:06;31.63;;;19.27;;
45848;SDS011;31567;54.600;9.842;2022-12-18T02:44:47;29.67;;;20.08;;
45848;SDS011;31567;54.600;9.842;2022-12-18T02:48:32;29.75;;;19.65;;
45848;SDS011;31567;54.600;9.842;2022-12-18T03:00:43;30.27;;;19.45;;
45848;SDS011;31567;54.600;9.842;2022-12-18T03:04:01;27.02;;;18.08;;
45848;SDS011;31567;54.600;9.842;2022-12-18T03:07:53;23.52;;;16.60;;
45848;SDS011;31567;54.600;9.842;2022-12-18T03:11:38;30.80;;;19.60;;
45848;SDS011;31567;54.600;9.842;2022-12-18T03:15:42;24.63;;;17.77;;
45848;SDS011;31567;54.600;9.842;2022-12-18T03:19:26;24.92;;;16.98;;
45848;SDS011;31567;54.600;9.842;2022-12-18T03:23:12;29.25;;;20.58;;
45848;SDS011;31567;54.600;9.842;2022-12-18T03:26:58;30.55;;;18.70;;
45848;SDS011;31567;54.600;9.842;2022-12-18T03:30:41;29.88;;;20.80;;
45848;SDS011;31567;54.600;9.842;2022-12-18T03:34:24;30.58;;;19.48;;
45848;SDS011;31567;54.600;9.842;2022-12-18T03:38:08;34.78;;;20.35;;
45848;SDS011;31567;54.600;9.842;2022-12-18T03:41:55;29.00;;;19.63;;
45848;SDS011;31567;54.600;9.842;2022-12-18T03:46:02;27.85;;;18.15;;
45848;SDS011;31567;54.600;9.842;2022-12-18T03:49:57;30.08;;;20.20;;
45848;SDS011;31567;54.600;9.842;2022-12-18T03:57:38;29.20;;;19.10;;
45848;SDS011;31567;54.600;9.842;2022-12-18T04:01:23;29.08;;;18.63;;
45848;SDS011;31567;54.600;9.842;2022-12-18T04:05:07;25.52;;;17.15;;
45848;SDS011;31567;54.600;9.842;2022-12-18T04:08:49;26.80;;;17.75;;
45848;SDS011;31567;54.600;9.842;2022-12-18T04:12:29;28.52;;;18.58;;
45848;SDS011;31567;54.600;9.842;2022-12-18T04:16:09;28.13;;;17.85;;
45848;SDS011;31567;54.600;9.842;2022-12-18T04:19:49;24.48;;;17.85;;
45848;SDS011;31567;54.600;9.842;2022-12-18T04:23:28;31.67;;;19.42;;
45848;SDS011;31567;54.600;9.842;2022-12-18T04:27:08;26.05;;;17.88;;
45848;SDS011;31567;54.600;9.842;2022-12-18T04:30:47;26.50;;;18.15;;
45848;SDS011;31567;54.600;9.842;2022-12-18T04:34:27;28.48;;;19.00;;
45848;SDS011;31567;54.600;9.842;2022-12-18T04:38:07;26.65;;;18.00;;
45848;SDS011;31567;54.600;9.842;2022-12-18T04:41:47;30.98;;;19.25;;
45848;SDS011;31567;54.600;9.842;2022-12-18T04:45:27;30.27;;;19.75;;
45848;SDS011;31567;54.600;9.842;2022-12-18T04:49:06;31.02;;;20.08;;
45848;SDS011;31567;54.600;9.842;2022-12-18T04:52:46;26.48;;;18.67;;
45848;SDS011;31567;54.600;9.842;2022-12-18T04:56:25;32.00;;;18.38;;
45848;SDS011;31567;54.600;9.842;2022-12-18T05:00:05;30.02;;;18.45;;
45848;SDS011;31567;54.600;9.842;2022-12-18T05:03:47;28.23;;;18.35;;
45848;SDS011;31567;54.600;9.842;2022-12-18T05:07:26;29.15;;;18.67;;
45848;SDS011;31567;54.600;9.842;2022-12-18T05:11:07;31.10;;;18.52;;
45848;SDS011;31567;54.600;9.842;2022-12-18T05:14:48;27.45;;;18.52;;
45848;SDS011;31567;54.600;9.842;2022-12-18T05:18:28;30.77;;;19.92;;
45848;SDS011;31567;54.600;9.842;2022-12-18T05:22:08;30.10;;;19.73;;
45848;SDS011;31567;54.600;9.842;2022-12-18T05:25:54;28.73;;;19.55;;
45848;SDS011;31567;54.600;9.842;2022-12-18T05:29:34;31.13;;;19.92;;
45848;SDS011;31567;54.600;9.842;2022-12-18T05:33:14;28.83;;;20.05;;
45848;SDS011;31567;54.600;9.842;2022-12-18T05:36:53;28.23;;;18.92;;
45848;SDS011;31567;54.600;9.842;2022-12-18T05:40:33;28.73;;;19.33;;
45848;SDS011;31567;54.600;9.842;2022-12-18T05:44:12;30.45;;;19.73;;
45848;SDS011;31567;54.600;9.842;2022-12-18T05:47:52;26.13;;;16.30;;
45848;SDS011;31567;54.600;9.842;2022-12-18T05:51:31;26.98;;;18.55;;
45848;SDS011;31567;54.600;9.842;2022-12-18T05:55:11;30.65;;;18.75;;
45848;SDS011;31567;54.600;9.842;2022-12-18T05:58:51;27.42;;;19.05;;
45848;SDS011;31567;54.600;9.842;2022-12-18T06:02:32;27.92;;;18.52;;
45848;SDS011;31567;54.600;9.842;2022-12-18T06:06:12;24.60;;;16.92;;
45848;SDS011;31567;54.600;9.842;2022-12-18T06:09:59;28.10;;;18.83;;
45848;SDS011;31567;54.600;9.842;2022-12-18T06:13:39;24.77;;;16.30;;
45848;SDS011;31567;54.600;9.842;2022-12-18T06:17:18;23.02;;;15.30;;
45848;SDS011;31567;54.600;9.842;2022-12-18T06:20:58;25.42;;;16.48;;
45848;SDS011;31567;54.600;9.842;2022-12-18T06:24:38;25.50;;;16.40;;
45848;SDS011;31567;54.600;9.842;2022-12-18T06:28:18;27.95;;;17.75;;
45848;SDS011;31567;54.600;9.842;2022-12-18T06:31:58;25.48;;;16.75;;
45848;SDS011;31567;54.600;9.842;2022-12-18T06:35:37;23.13;;;14.45;;
45848;SDS011;31567;54.600;9.842;2022-12-18T06:39:17;20.27;;;15.10;;
45848;SDS011;31567;54.600;9.842;2022-12-18T06:42:56;22.40;;;15.23;;
45848;SDS011;31567;54.600;9.842;2022-12-18T06:46:36;27.23;;;17.52;;
45848;SDS011;31567;54.600;9.842;2022-12-18T06:50:16;19.77;;;14.02;;
45848;SDS011;31567;54.600;9.842;2022-12-18T06:53:56;26.60;;;16.30;;
45848;SDS011;31567;54.600;9.842;2022-12-18T06:57:36;22.73;;;15.32;;
45848;SDS011;31567;54.600;9.842;2022-12-18T07:01:16;22.88;;;15.32;;
45848;SDS011;31567;54.600;9.842;2022-12-18T07:04:56;20.02;;;14.10;;
45848;SDS011;31567;54.600;9.842;2022-12-18T07:08:35;22.60;;;16.17;;
45848;SDS011;31567;54.600;9.842;2022-12-18T07:12:15;24.05;;;17.20;;
45848;SDS011;31567;54.600;9.842;2022-12-18T07:15:54;22.55;;;14.18;;
45848;SDS011;31567;54.600;9.842;2022-12-18T07:19:34;26.98;;;16.35;;
45848;SDS011;31567;54.600;9.842;2022-12-18T07:23:13;22.27;;;15.88;;
45848;SDS011;31567;54.600;9.842;2022-12-18T07:26:53;23.30;;;16.10;;
45848;SDS011;31567;54.600;9.842;2022-12-18T07:30:32;24.45;;;15.93;;
45848;SDS011;31567;54.600;9.842;2022-12-18T07:34:12;22.80;;;16.70;;
45848;SDS011;31567;54.600;9.842;2022-12-18T07:37:52;21.70;;;14.32;;
45848;SDS011;31567;54.600;9.842;2022-12-18T07:41:32;19.98;;;13.88;;
45848;SDS011;31567;54.600;9.842;2022-12-18T07:45:11;19.30;;;13.27;;
45848;SDS011;31567;54.600;9.842;2022-12-18T07:48:51;27.35;;;15.27;;
45848;SDS011;31567;54.600;9.842;2022-12-18T07:52:31;21.85;;;13.02;;
45848;SDS011;31567;54.600;9.842;2022-12-18T07:56:11;19.55;;;12.23;;
45848;SDS011;31567;54.600;9.842;2022-12-18T07:59:51;17.67;;;11.88;;
45848;SDS011;31567;54.600;9.842;2022-12-18T08:03:31;16.08;;;10.63;;
45848;SDS011;31567;54.600;9.842;2022-12-18T08:07:10;16.98;;;10.82;;
45848;SDS011;31567;54.600;9.842;2022-12-18T08:10:50;14.43;;;10.57;;
45848;SDS011;31567;54.600;9.842;2022-12-18T08:14:29;11.25;;;9.43;;
45848;SDS011;31567;54.600;9.842;2022-12-18T08:18:09;15.18;;;10.77;;
45848;SDS011;31567;54.600;9.842;2022-12-18T08:21:48;13.35;;;10.18;;
45848;SDS011;31567;54.600;9.842;2022-12-18T08:25:28;14.45;;;9.93;;
45848;SDS011;31567;54.600;9.842;2022-12-18T08:29:08;17.63;;;10.43;;
45848;SDS011;31567;54.600;9.842;2022-12-18T08:32:51;15.15;;;9.73;;
45848;SDS011;31567;54.600;9.842;2022-12-18T08:36:32;14.77;;;9.70;;
45848;SDS011;31567;54.600;9.842;2022-12-18T08:40:11;15.23;;;8.80;;
45848;SDS011;31567;54.600;9.842;2022-12-18T08:43:51;15.32;;;9.40;;
45848;SDS011;31567;54.600;9.842;2022-12-18T08:47:49;11.68;;;8.63;;
45848;SDS011;31567;54.600;9.842;2022-12-18T08:51:29;13.70;;;9.10;;
45848;SDS011;31567;54.600;9.842;2022-12-18T08:55:09;14.07;;;8.90;;
45848;SDS011;31567;54.600;9.842;2022-12-18T08:58:51;19.00;;;9.68;;
45848;SDS011;31567;54.600;9.842;2022-12-18T09:02:32;13.38;;;9.60;;
45848;SDS011;31567;54.600;9.842;2022-12-18T09:06:13;15.15;;;10.18;;
45848;SDS011;31567;54.600;9.842;2022-12-18T09:09:54;14.88;;;10.63;;
45848;SDS011;31567;54.600;9.842;2022-12-18T09:13:34;14.55;;;10.40;;
45848;SDS011;31567;54.600;9.842;2022-12-18T09:17:13;15.88;;;10.07;;
45848;SDS011;31567;54.600;9.842;2022-12-18T09:20:53;14.07;;;10.15;;
45848;SDS011;31567;54.600;9.842;2022-12-18T09:24:32;14.20;;;9.48;;
45848;SDS011;31567;54.600;9.842;2022-12-18T09:28:12;11.57;;;9.30;;
45848;SDS011;31567;54.600;9.842;2022-12-18T09:31:54;12.32;;;8.85;;
45848;SDS011;31567;54.600;9.842;2022-12-18T09:35:37;15.35;;;8.98;;
45848;SDS011;31567;54.600;9.842;2022-12-18T09:39:17;11.35;;;8.77;;
45848;SDS011;31567;54.600;9.842;2022-12-18T09:43:00;12.00;;;9.13;;
45848;SDS011;31567;54.600;9.842;2022-12-18T09:46:51;13.30;;;8.75;;
45848;SDS011;31567;54.600;9.842;2022-12-18T09:50:37;11.35;;;8.27;;
45848;SDS011;31567;54.600;9.842;2022-12-18T09:54:26;11.48;;;8.05;;
45848;SDS011;31567;54.600;9.842;2022-12-18T09:58:33;9.77;;;7.30;;
45848;SDS011;31567;54.600;9.842;2022-12-18T10:02:21;9.48;;;6.72;;
45848;SDS011;31567;54.600;9.842;2022-12-18T10:06:06;9.90;;;7.30;;
45848;SDS011;31567;54.600;9.842;2022-12-18T10:09:56;9.18;;;6.72;;
45848;SDS011;31567;54.600;9.842;2022-12-18T10:13:47;10.05;;;7.53;;
45848;SDS011;31567;54.600;9.842;2022-12-18T10:17:46;7.28;;;6.07;;
45848;SDS011;31567;54.600;9.842;2022-12-18T10:21:39;9.00;;;6.65;;
45848;SDS011;31567;54.600;9.842;2022-12-18T10:25:26;7.40;;;5.43;;
45848;SDS011;31567;54.600;9.842;2022-12-18T10:29:14;10.02;;;6.75;;
45848;SDS011;31567;54.600;9.842;2022-12-18T10:32:59;9.57;;;6.43;;
45848;SDS011;31567;54.600;9.842;2022-12-18T10:36:40;9.13;;;6.43;;
45848;SDS011;31567;54.600;9.842;2022-12-18T10:40:21;9.77;;;6.20;;
45848;SDS011;31567;54.600;9.842;2022-12-18T10:48:04;8.00;;;5.72;;
45848;SDS011;31567;54.600;9.842;2022-12-18T10:52:11;8.80;;;6.10;;
45848;SDS011;31567;54.600;9.842;2022-12-18T10:56:00;12.40;;;6.35;;
45848;SDS011;31567;54.600;9.842;2022-12-18T10:59:49;8.82;;;6.25;;
45848;SDS011;31567;54.600;9.842;2022-12-18T11:03:33;10.70;;;7.35;;
45848;SDS011;31567;54.600;9.842;2022-12-18T11:07:15;10.38;;;7.40;;
45848;SDS011;31567;54.600;9.842;2022-12-18T11:10:54;9.60;;;7.38;;
45848;SDS011;31567;54.600;9.842;2022-12-18T11:14:42;11.65;;;7.28;;
45848;SDS011;31567;54.600;9.842;2022-12-18T11:18:34;10.15;;;6.97;;
45848;SDS011;31567;54.600;9.842;2022-12-18T11:22:21;7.80;;;6.82;;
45848;SDS011;31567;54.600;9.842;2022-12-18T11:26:12;10.07;;;7.53;;
45848;SDS011;31567;54.600;9.842;2022-12-18T11:29:52;10.57;;;6.82;;
45848;SDS011;31567;54.600;9.842;2022-12-18T11:33:32;11.90;;;8.00;;
45848;SDS011;31567;54.600;9.842;2022-12-18T11:37:12;8.48;;;6.57;;
45848;SDS011;31567;54.600;9.842;2022-12-18T11:45:40;10.77;;;7.47;;
45848;SDS011;31567;54.600;9.842;2022-12-18T11:53:09;9.75;;;6.40;;
45848;SDS011;31567;54.600;9.842;2022-12-18T11:57:02;10.48;;;7.25;;
45848;SDS011;31567;54.600;9.842;2022-12-18T12:05:04;11.00;;;7.30;;
45848;SDS011;31567;54.600;9.842;2022-12-18T12:09:11;10.07;;;7.05;;
45848;SDS011;31567;54.600;9.842;2022-12-18T12:24:48;14.23;;;8.38;;
45848;SDS011;31567;54.600;9.842;2022-12-18T12:41:00;9.57;;;7.82;;
45848;SDS011;31567;54.600;9.842;2022-12-18T12:44:46;10.60;;;7.93;;
45848;SDS011;31567;54.600;9.842;2022-12-18T12:52:37;13.00;;;8.47;;
45848;SDS011;31567;54.600;9.842;2022-12-18T12:56:21;13.43;;;8.85;;
45848;SDS011;31567;54.600;9.842;2022-12-18T13:00:05;10.70;;;8.55;;
45848;SDS011;31567;54.600;9.842;2022-12-18T13:04:00;11.80;;;7.95;;
45848;SDS011;31567;54.600;9.842;2022-12-18T13:12:10;10.35;;;7.10;;
45848;SDS011;31567;54.600;9.842;2022-12-18T13:16:09;9.95;;;7.07;;
45848;SDS011;31567;54.600;9.842;2022-12-18T13:20:02;9.75;;;7.40;;
45848;SDS011;31567;54.600;9.842;2022-12-18T13:23:42;11.07;;;7.80;;
45848;SDS011;31567;54.600;9.842;2022-12-18T13:39:10;11.45;;;8.05;;
45848;SDS011;31567;54.600;9.842;2022-12-18T13:42:53;11.93;;;8.30;;
45848;SDS011;31567;54.600;9.842;2022-12-18T13:46:52;11.32;;;8.68;;
45848;SDS011;31567;54.600;9.842;2022-12-18T13:50:32;13.80;;;8.70;;
45848;SDS011;31567;54.600;9.842;2022-12-18T13:58:11;14.35;;;9.55;;
45848;SDS011;31567;54.600;9.842;2022-12-18T14:05:31;11.88;;;9.27;;
45848;SDS011;31567;54.600;9.842;2022-12-18T14:09:15;12.32;;;9.57;;
45848;SDS011;31567;54.600;9.842;2022-12-18T14:12:57;11.65;;;8.75;;
45848;SDS011;31567;54.600;9.842;2022-12-18T14:16:43;13.63;;;9.82;;
45848;SDS011;31567;54.600;9.842;2022-12-18T14:20:24;12.82;;;9.77;;
45848;SDS011;31567;54.600;9.842;2022-12-18T14:24:05;11.77;;;9.35;;
45848;SDS011;31567;54.600;9.842;2022-12-18T14:28:02;11.55;;;9.43;;
45848;SDS011;31567;54.600;9.842;2022-12-18T14:31:45;12.35;;;8.88;;
45848;SDS011;31567;54.600;9.842;2022-12-18T14:35:25;14.43;;;9.25;;
45848;SDS011;31567;54.600;9.842;2022-12-18T14:39:04;14.07;;;9.18;;
45848;SDS011;31567;54.600;9.842;2022-12-18T14:42:44;13.15;;;8.95;;
45848;SDS011;31567;54.600;9.842;2022-12-18T14:46:32;13.15;;;9.60;;
45848;SDS011;31567;54.600;9.842;2022-12-18T14:50:21;15.30;;;10.15;;
45848;SDS011;31567;54.600;9.842;2022-12-18T14:54:14;14.07;;;10.05;;
45848;SDS011;31567;54.600;9.842;2022-12-18T14:57:55;11.88;;;9.07;;
45848;SDS011;31567;54.600;9.842;2022-12-18T15:01:36;13.15;;;9.32;;
45848;SDS011;31567;54.600;9.842;2022-12-18T15:05:24;14.10;;;10.32;;
45848;SDS011;31567;54.600;9.842;2022-12-18T15:09:20;13.45;;;8.93;;
45848;SDS011;31567;54.600;9.842;2022-12-18T15:16:44;14.23;;;8.73;;
45848;SDS011;31567;54.600;9.842;2022-12-18T15:20:30;13.43;;;8.98;;
45848;SDS011;31567;54.600;9.842;2022-12-18T15:24:16;13.18;;;8.40;;
45848;SDS011;31567;54.600;9.842;2022-12-18T15:27:59;12.38;;;8.65;;
45848;SDS011;31567;54.600;9.842;2022-12-18T15:31:38;15.07;;;8.45;;
45848;SDS011;31567;54.600;9.842;2022-12-18T15:35:20;13.02;;;8.55;;
45848;SDS011;31567;54.600;9.842;2022-12-18T15:39:02;14.32;;;9.57;;
45848;SDS011;31567;54.600;9.842;2022-12-18T15:42:42;12.98;;;9.25;;
45848;SDS011;31567;54.600;9.842;2022-12-18T15:46:41;17.17;;;10.25;;
45848;SDS011;31567;54.600;9.842;2022-12-18T15:50:21;18.05;;;10.43;;
45848;SDS011;31567;54.600;9.842;2022-12-18T15:54:02;15.93;;;10.43;;
45848;SDS011;31567;54.600;9.842;2022-12-18T15:57:43;18.90;;;11.52;;
45848;SDS011;31567;54.600;9.842;2022-12-18T16:01:23;18.20;;;11.00;;
45848;SDS011;31567;54.600;9.842;2022-12-18T16:05:10;17.55;;;10.93;;
45848;SDS011;31567;54.600;9.842;2022-12-18T16:08:54;16.80;;;11.15;;
45848;SDS011;31567;54.600;9.842;2022-12-18T16:12:33;18.70;;;10.90;;
45848;SDS011;31567;54.600;9.842;2022-12-18T16:16:13;18.25;;;11.45;;
45848;SDS011;31567;54.600;9.842;2022-12-18T16:19:52;19.05;;;11.60;;
45848;SDS011;31567;54.600;9.842;2022-12-18T16:23:32;18.70;;;11.07;;
45848;SDS011;31567;54.600;9.842;2022-12-18T16:27:12;17.27;;;10.75;;
45848;SDS011;31567;54.600;9.842;2022-12-18T16:30:51;18.85;;;11.00;;
45848;SDS011;31567;54.600;9.842;2022-12-18T16:34:32;18.05;;;10.50;;
45848;SDS011;31567;54.600;9.842;2022-12-18T16:38:12;18.90;;;10.38;;
45848;SDS011;31567;54.600;9.842;2022-12-18T16:41:52;21.02;;;12.30;;
45848;SDS011;31567;54.600;9.842;2022-12-18T16:45:31;20.50;;;11.50;;
45848;SDS011;31567;54.600;9.842;2022-12-18T16:49:12;20.65;;;11.35;;
45848;SDS011;31567;54.600;9.842;2022-12-18T16:52:55;22.73;;;12.52;;
45848;SDS011;31567;54.600;9.842;2022-12-18T16:56:35;22.30;;;12.60;;
45848;SDS011;31567;54.600;9.842;2022-12-18T17:00:15;23.15;;;12.18;;
45848;SDS011;31567;54.600;9.842;2022-12-18T17:03:57;21.27;;;11.68;;
45848;SDS011;31567;54.600;9.842;2022-12-18T17:07:38;21.75;;;11.02;;
45848;SDS011;31567;54.600;9.842;2022-12-18T17:11:17;25.08;;;12.38;;
45848;SDS011;31567;54.600;9.842;2022-12-18T17:14:57;22.85;;;12.70;;
45848;SDS011;31567;54.600;9.842;2022-12-18T17:18:36;23.38;;;12.00;;
45848;SDS011;31567;54.600;9.842;2022-12-18T17:22:16;21.42;;;11.07;;
45848;SDS011;31567;54.600;9.842;2022-12-18T17:25:56;23.10;;;12.77;;
45848;SDS011;31567;54.600;9.842;2022-12-18T17:29:36;23.13;;;11.20;;
45848;SDS011;31567;54.600;9.842;2022-12-18T17:33:16;22.50;;;11.05;;
45848;SDS011;31567;54.600;9.842;2022-12-18T17:36:55;23.73;;;11.93;;
45848;SDS011;31567;54.600;9.842;2022-12-18T17:40:35;28.50;;;13.05;;
45848;SDS011;31567;54.600;9.842;2022-12-18T17:44:15;22.27;;;11.82;;
45848;SDS011;31567;54.600;9.842;2022-12-18T17:47:55;24.25;;;12.13;;
45848;SDS011;31567;54.600;9.842;2022-12-18T17:51:35;25.10;;;12.05;;
45848;SDS011;31567;54.600;9.842;2022-12-18T17:55:14;24.48;;;11.85;;
45848;SDS011;31567;54.600;9.842;2022-12-18T17:58:54;24.23;;;11.80;;
45848;SDS011;31567;54.600;9.842;2022-12-18T18:02:34;23.20;;;12.43;;
45848;SDS011;31567;54.600;9.842;2022-12-18T18:06:13;22.45;;;11.18;;
45848;SDS011;31567;54.600;9.842;2022-12-18T18:09:53;21.10;;;12.63;;
45848;SDS011;31567;54.600;9.842;2022-12-18T18:13:33;30.95;;;12.80;;
45848;SDS011;31567;54.600;9.842;2022-12-18T18:17:31;22.48;;;11.80;;
45848;SDS011;31567;54.600;9.842;2022-12-18T18:21:10;26.92;;;13.20;;
45848;SDS011;31567;54.600;9.842;2022-12-18T18:24:50;26.85;;;12.60;;
45848;SDS011;31567;54.600;9.842;2022-12-18T18:28:29;22.58;;;12.02;;
45848;SDS011;31567;54.600;9.842;2022-12-18T18:32:09;22.70;;;11.00;;
45848;SDS011;31567;54.600;9.842;2022-12-18T18:35:49;27.15;;;12.32;;
45848;SDS011;31567;54.600;9.842;2022-12-18T18:39:28;23.88;;;11.32;;
45848;SDS011;31567;54.600;9.842;2022-12-18T18:43:08;25.38;;;12.18;;
45848;SDS011;31567;54.600;9.842;2022-12-18T18:46:47;25.27;;;12.55;;
45848;SDS011;31567;54.600;9.842;2022-12-18T18:50:27;25.38;;;12.93;;
45848;SDS011;31567;54.600;9.842;2022-12-18T18:54:07;20.13;;;11.40;;
45848;SDS011;31567;54.600;9.842;2022-12-18T18:57:47;22.55;;;11.95;;
45848;SDS011;31567;54.600;9.842;2022-12-18T19:01:27;21.35;;;11.63;;
45848;SDS011;31567;54.600;9.842;2022-12-18T19:05:06;23.63;;;11.90;;
45848;SDS011;31567;54.600;9.842;2022-12-18T19:08:46;22.80;;;11.95;;
45848;SDS011;31567;54.600;9.842;2022-12-18T19:12:26;20.90;;;11.80;;
45848;SDS011;31567;54.600;9.842;2022-12-18T19:16:25;21.95;;;10.85;;
45848;SDS011;31567;54.600;9.842;2022-12-18T19:20:05;21.20;;;11.05;;
45848;SDS011;31567;54.600;9.842;2022-12-18T19:23:46;21.98;;;11.55;;
45848;SDS011;31567;54.600;9.842;2022-12-18T19:27:26;20.13;;;11.50;;
45848;SDS011;31567;54.600;9.842;2022-12-18T19:31:07;26.30;;;12.90;;
45848;SDS011;31567;54.600;9.842;2022-12-18T19:34:48;22.70;;;11.32;;
45848;SDS011;31567;54.600;9.842;2022-12-18T19:38:28;21.58;;;12.10;;
45848;SDS011;31567;54.600;9.842;2022-12-18T19:42:07;20.13;;;11.18;;
45848;SDS011;31567;54.600;9.842;2022-12-18T19:45:52;18.70;;;10.35;;
45848;SDS011;31567;54.600;9.842;2022-12-18T19:49:32;21.40;;;10.73;;
45848;SDS011;31567;54.600;9.842;2022-12-18T19:53:12;21.25;;;11.30;;
45848;SDS011;31567;54.600;9.842;2022-12-18T19:56:52;18.13;;;10.27;;
45848;SDS011;31567;54.600;9.842;2022-12-18T20:00:31;19.73;;;10.13;;
45848;SDS011;31567;54.600;9.842;2022-12-18T20:04:11;17.13;;;10.15;;
45848;SDS011;31567;54.600;9.842;2022-12-18T20:07:50;19.33;;;10.65;;
45848;SDS011;31567;54.600;9.842;2022-12-18T20:11:33;20.00;;;11.27;;
45848;SDS011;31567;54.600;9.842;2022-12-18T20:15:13;20.63;;;12.23;;
45848;SDS011;31567;54.600;9.842;2022-12-18T20:18:53;18.10;;;10.43;;
45848;SDS011;31567;54.600;9.842;2022-12-18T20:22:33;18.20;;;10.27;;
45848;SDS011;31567;54.600;9.842;2022-12-18T20:26:12;19.20;;;10.45;;
45848;SDS011;31567;54.600;9.842;2022-12-18T20:29:52;17.98;;;9.82;;
45848;SDS011;31567;54.600;9.842;2022-12-18T20:33:31;21.00;;;10.63;;
45848;SDS011;31567;54.600;9.842;2022-12-18T20:37:12;16.73;;;9.38;;
45848;SDS011;31567;54.600;9.842;2022-12-18T20:40:51;16.13;;;9.55;;
45848;SDS011;31567;54.600;9.842;2022-12-18T20:44:31;14.32;;;8.68;;
45848;SDS011;31567;54.600;9.842;2022-12-18T20:48:10;16.55;;;9.02;;
45848;SDS011;31567;54.600;9.842;2022-12-18T20:51:51;16.45;;;8.80;;
45848;SDS011;31567;54.600;9.842;2022-12-18T20:55:32;20.35;;;10.55;;
45848;SDS011;31567;54.600;9.842;2022-12-18T20:59:11;17.95;;;9.82;;
45848;SDS011;31567;54.600;9.842;2022-12-18T21:02:51;19.00;;;10.82;;
45848;SDS011;31567;54.600;9.842;2022-12-18T21:06:30;16.02;;;10.43;;
45848;SDS011;31567;54.600;9.842;2022-12-18T21:10:10;17.50;;;10.13;;
45848;SDS011;31567;54.600;9.842;2022-12-18T21:13:49;16.65;;;9.40;;
45848;SDS011;31567;54.600;9.842;2022-12-18T21:17:29;17.58;;;11.02;;
45848;SDS011;31567;54.600;9.842;2022-12-18T21:21:09;18.67;;;10.07;;
45848;SDS011;31567;54.600;9.842;2022-12-18T21:24:48;16.73;;;10.15;;
45848;SDS011;31567;54.600;9.842;2022-12-18T21:28:28;19.25;;;10.85;;
45848;SDS011;31567;54.600;9.842;2022-12-18T21:32:08;17.70;;;10.32;;
45848;SDS011;31567;54.600;9.842;2022-12-18T21:35:48;16.42;;;9.73;;
45848;SDS011;31567;54.600;9.842;2022-12-18T21:39:27;19.88;;;11.35;;
45848;SDS011;31567;54.600;9.842;2022-12-18T21:43:08;19.60;;;10.85;;
45848;SDS011;31567;54.600;9.842;2022-12-18T21:47:06;20.15;;;11.35;;
45848;SDS011;31567;54.600;9.842;2022-12-18T21:50:46;19.17;;;10.40;;
45848;SDS011;31567;54.600;9.842;2022-12-18T21:54:26;17.67;;;10.40;;
45848;SDS011;31567;54.600;9.842;2022-12-18T21:58:07;19.98;;;11.43;;
45848;SDS011;31567;54.600;9.842;2022-12-18T22:01:47;17.08;;;10.68;;
45848;SDS011;31567;54.600;9.842;2022-12-18T22:05:27;17.13;;;10.43;;
45848;SDS011;31567;54.600;9.842;2022-12-18T22:09:10;18.73;;;10.93;;
45848;SDS011;31567;54.600;9.842;2022-12-18T22:12:50;19.77;;;11.40;;
45848;SDS011;31567;54.600;9.842;2022-12-18T22:16:30;17.20;;;10.10;;
45848;SDS011;31567;54.600;9.842;2022-12-18T22:20:09;19.67;;;10.68;;
45848;SDS011;31567;54.600;9.842;2022-12-18T22:23:53;20.63;;;12.40;;
45848;SDS011;31567;54.600;9.842;2022-12-18T22:27:43;16.40;;;10.88;;
45848;SDS011;31567;54.600;9.842;2022-12-18T22:31:46;17.67;;;10.73;;
45848;SDS011;31567;54.600;9.842;2022-12-18T22:35:25;20.08;;;10.70;;
45848;SDS011;31567;54.600;9.842;2022-12-18T22:39:05;19.83;;;11.38;;
45848;SDS011;31567;54.600;9.842;2022-12-18T22:42:47;19.60;;;11.07;;
45848;SDS011;31567;54.600;9.842;2022-12-18T22:46:28;18.20;;;10.77;;
45848;SDS011;31567;54.600;9.842;2022-12-18T22:50:11;21.10;;;11.90;;
45848;SDS011;31567;54.600;9.842;2022-12-18T22:53:51;18.35;;;10.23;;
45848;SDS011;31567;54.600;9.842;2022-12-18T22:57:31;19.55;;;11.00;;
45848;SDS011;31567;54.600;9.842;2022-12-18T23:01:21;19.67;;;11.07;;
45848;SDS011;31567;54.600;9.842;2022-12-18T23:05:02;19.73;;;12.85;;
45848;SDS011;31567;54.600;9.842;2022-12-18T23:08:45;20.27;;;12.05;;
45848;SDS011;31567;54.600;9.842;2022-12-18T23:12:25;18.77;;;9.82;;
45848;SDS011;31567;54.600;9.842;2022-12-18T23:16:05;21.42;;;13.10;;
45848;SDS011;31567;54.600;9.842;2022-12-18T23:19:46;22.63;;;12.82;;
45848;SDS011;31567;54.600;9.842;2022-12-18T23:23:25;22.20;;;11.85;;
45848;SDS011;31567;54.600;9.842;2022-12-18T23:27:05;23.98;;;12.07;;